createdAt,value
2023-10-17T00:01:19.379Z,2.72
2023-10-17T00:03:47.105Z,3.10
2023-10-17T00:06:14.949Z,3.30
2023-10-17T00:08:42.200Z,3.33
2023-10-17T00:11:13.434Z,2.88
2023-10-17T00:13:39.922Z,3.42
2023-10-17T00:16:09.187Z,3.25
2023-10-17T00:18:35.599Z,3.80
2023-10-17T00:21:31.421Z,3.22
2023-10-17T00:24:00.661Z,3.08
2023-10-17T00:26:27.235Z,3.00
2023-10-17T00:28:54.381Z,2.95
2023-10-17T00:31:25.547Z,3.03
2023-10-17T00:33:58.870Z,4.55
2023-10-17T00:36:27.717Z,3.28
2023-10-17T00:38:55.392Z,3.92
2023-10-17T00:41:33.641Z,3.40
2023-10-17T00:44:00.082Z,3.33
2023-10-17T00:46:36.499Z,3.22
2023-10-17T00:49:06.023Z,3.05
2023-10-17T00:51:33.357Z,2.42
2023-10-17T00:54:01.584Z,3.22
2023-10-17T00:56:28.243Z,2.80
2023-10-17T00:58:58.907Z,3.20
2023-10-17T01:01:28.743Z,2.88
2023-10-17T01:03:56.271Z,3.17
2023-10-17T01:06:31.983Z,3.13
2023-10-17T01:09:10.201Z,2.80
2023-10-17T01:11:39.747Z,3.13
2023-10-17T01:14:06.664Z,3.58
2023-10-17T01:16:36.797Z,3.08
2023-10-17T01:19:06.212Z,3.42
2023-10-17T01:21:32.744Z,3.60
2023-10-17T01:23:59.344Z,3.80
2023-10-17T01:26:27.448Z,2.38
2023-10-17T01:28:54.568Z,3.05
2023-10-17T01:31:24.986Z,3.30
2023-10-17T01:33:52.403Z,2.90
2023-10-17T01:36:20.565Z,2.92
2023-10-17T01:38:50.346Z,3.47
2023-10-17T01:41:19.584Z,3.78
2023-10-17T01:43:47.098Z,3.92
2023-10-17T01:46:17.213Z,3.42
2023-10-17T01:48:50.347Z,3.40
2023-10-17T01:51:17.779Z,4.38
2023-10-17T01:53:46.283Z,3.30
2023-10-17T01:56:16.149Z,4.45
2023-10-17T01:58:51.955Z,4.85
2023-10-17T02:01:31.440Z,3.28
2023-10-17T02:04:03.145Z,3.15
2023-10-17T02:06:34.384Z,3.05
2023-10-17T02:09:11.038Z,3.15
2023-10-17T02:11:51.765Z,3.65
2023-10-17T02:14:18.201Z,3.63
2023-10-17T02:16:45.210Z,3.40
2023-10-17T02:19:12.307Z,4.25
2023-10-17T02:21:44.400Z,3.60
2023-10-17T02:24:11.138Z,3.33
2023-10-17T02:26:44.785Z,2.83
2023-10-17T02:29:16.082Z,3.45
2023-10-17T02:31:43.176Z,3.97
2023-10-17T02:34:12.549Z,3.38
2023-10-17T02:36:39.170Z,3.78
2023-10-17T02:39:07.207Z,2.72
2023-10-17T02:41:33.854Z,2.80
2023-10-17T02:44:00.314Z,3.28
2023-10-17T02:46:29.699Z,3.17
2023-10-17T02:48:56.669Z,3.95
2023-10-17T02:51:23.312Z,3.10
2023-10-17T02:53:53.198Z,3.47
2023-10-17T02:56:20.170Z,3.00
2023-10-17T02:58:50.988Z,3.67
2023-10-17T03:01:20.600Z,3.22
2023-10-17T03:03:53.406Z,3.05
2023-10-17T03:06:20.416Z,3.10
2023-10-17T03:08:53.080Z,2.90
2023-10-17T03:11:28.021Z,2.72
2023-10-17T03:13:54.582Z,2.95
2023-10-17T03:16:27.503Z,2.88
2023-10-17T03:18:59.253Z,3.10
2023-10-17T03:21:35.857Z,3.13
2023-10-17T03:24:05.835Z,3.20
2023-10-17T03:26:40.384Z,3.47
2023-10-17T03:29:15.359Z,3.25
2023-10-17T03:31:47.188Z,2.97
2023-10-17T03:34:13.942Z,3.20
2023-10-17T03:36:40.846Z,3.33
2023-10-17T03:39:22.139Z,2.20
2023-10-17T03:41:57.824Z,2.67
2023-10-17T03:44:40.312Z,2.67
2023-10-17T03:47:06.721Z,2.67
2023-10-17T03:49:39.090Z,3.25
2023-10-17T03:52:07.582Z,2.83
2023-10-17T03:54:40.226Z,3.13
2023-10-17T03:57:15.197Z,3.33
2023-10-17T03:59:52.073Z,2.40
2023-10-17T04:02:22.926Z,2.90
2023-10-17T04:04:58.191Z,2.47
2023-10-17T04:07:35.756Z,2.70
2023-10-17T04:10:02.198Z,2.60
2023-10-17T04:12:49.449Z,3.25
2023-10-17T04:15:20.112Z,2.78
2023-10-17T04:17:49.900Z,3.00
2023-10-17T04:20:17.703Z,3.08
2023-10-17T04:22:46.966Z,3.90
2023-10-17T04:25:31.997Z,3.33
2023-10-17T04:28:01.137Z,2.63
2023-10-17T04:30:50.751Z,2.88
2023-10-17T04:33:21.587Z,3.40
2023-10-17T04:35:48.591Z,2.97
2023-10-17T04:38:28.050Z,3.35
2023-10-17T04:41:19.321Z,3.47
2023-10-17T04:44:04.084Z,2.80
2023-10-17T04:46:30.614Z,3.47
2023-10-17T04:49:07.816Z,3.30
2023-10-17T04:51:39.224Z,3.85
2023-10-17T04:54:25.084Z,4.82
2023-10-17T04:56:56.960Z,3.67
2023-10-17T04:59:42.335Z,3.37
2023-10-17T05:02:18.669Z,4.00
2023-10-17T05:04:55.739Z,3.58
2023-10-17T05:07:31.346Z,3.95
2023-10-17T05:10:16.656Z,4.05
2023-10-17T05:13:01.662Z,4.50
2023-10-17T05:15:46.502Z,5.25
2023-10-17T05:18:31.516Z,4.78
2023-10-17T05:21:16.620Z,4.22
2023-10-17T05:24:01.759Z,4.50
2023-10-17T05:26:46.812Z,4.88
2023-10-17T05:29:31.735Z,5.60
2023-10-17T05:32:16.752Z,5.15
2023-10-17T05:35:03.748Z,5.03
2023-10-17T05:37:49.203Z,5.28
2023-10-17T05:40:34.210Z,5.00
2023-10-17T05:43:19.217Z,5.47
2023-10-17T05:46:18.801Z,5.10
2023-10-17T05:49:09.165Z,5.15
2023-10-17T05:51:54.178Z,4.85
2023-10-17T05:57:27.718Z,5.53
2023-10-17T06:00:12.885Z,6.10
2023-10-17T06:02:57.927Z,5.95
2023-10-17T06:05:42.940Z,6.65
2023-10-17T06:08:28.059Z,6.03
2023-10-17T06:11:13.994Z,6.10
2023-10-17T06:13:59.481Z,6.07
2023-10-17T06:16:44.453Z,6.43
2023-10-17T06:19:16.731Z,6.25
2023-10-17T06:22:12.589Z,6.72
2023-10-17T06:24:44.850Z,6.43
2023-10-17T06:27:30.561Z,6.57
2023-10-17T06:29:57.052Z,7.18
2023-10-17T06:32:23.388Z,6.22
2023-10-17T06:34:50.060Z,6.90
2023-10-17T06:37:29.270Z,7.60
2023-10-17T06:39:59.388Z,7.00
2023-10-17T06:42:30.965Z,6.93
2023-10-17T06:45:10.651Z,7.57
2023-10-17T06:47:43.170Z,7.55
2023-10-17T06:50:15.995Z,6.35
2023-10-17T06:55:23.849Z,5.07
2023-10-17T06:57:51.795Z,7.03
2023-10-17T07:00:25.401Z,6.75
2023-10-17T07:02:52.227Z,6.88
2023-10-17T07:05:24.693Z,5.78
2023-10-17T07:07:53.954Z,6.95
2023-10-17T07:10:39.681Z,6.10
2023-10-17T07:13:24.915Z,6.18
2023-10-17T07:15:54.351Z,5.55
2023-10-17T07:18:39.797Z,6.60
2023-10-17T07:21:15.854Z,6.25
2023-10-17T07:23:43.524Z,5.90
2023-10-17T07:26:18.763Z,5.95
2023-10-17T07:28:45.594Z,6.22
2023-10-17T07:31:14.753Z,5.80
2023-10-17T07:33:44.866Z,7.25
2023-10-17T07:36:17.277Z,5.72
2023-10-17T07:38:46.439Z,6.28
2023-10-17T07:41:15.769Z,5.03
2023-10-17T07:43:58.756Z,6.70
2023-10-17T07:49:05.134Z,6.35
2023-10-17T07:51:33.378Z,6.60
2023-10-17T07:53:59.945Z,5.20
2023-10-17T07:56:27.396Z,5.45
2023-10-17T07:59:16.938Z,6.25
2023-10-17T08:01:44.681Z,5.93
2023-10-17T08:04:15.093Z,5.00
2023-10-17T08:06:41.789Z,5.45
2023-10-17T08:09:29.632Z,6.15
2023-10-17T08:12:09.665Z,6.22
2023-10-17T08:14:43.384Z,6.38
2023-10-17T08:17:10.625Z,4.85
2023-10-17T08:19:55.520Z,5.30
2023-10-17T08:22:26.556Z,5.57
2023-10-17T08:24:53.140Z,4.13
2023-10-17T08:27:23.000Z,3.15
2023-10-17T08:29:50.721Z,5.40
2023-10-17T08:32:23.262Z,4.90
2023-10-17T08:34:50.608Z,3.83
2023-10-17T08:37:27.450Z,3.95
2023-10-17T08:39:53.902Z,3.45
2023-10-17T08:42:31.540Z,3.60
2023-10-17T08:45:00.716Z,3.67
2023-10-17T08:47:31.195Z,3.78
2023-10-17T08:50:04.116Z,4.40
2023-10-17T08:52:36.168Z,2.85
2023-10-17T08:55:28.463Z,3.80
2023-10-17T08:57:54.891Z,3.50
2023-10-17T09:00:47.232Z,3.17
2023-10-17T09:03:36.967Z,3.85
2023-10-17T09:06:06.543Z,2.88
2023-10-17T09:08:51.491Z,2.97
2023-10-17T09:11:30.554Z,3.03
2023-10-17T09:14:16.555Z,3.25
2023-10-17T09:16:51.366Z,3.33
2023-10-17T09:19:21.671Z,3.15
2023-10-17T09:21:48.660Z,2.97
2023-10-17T09:24:31.050Z,3.22
2023-10-17T09:26:57.826Z,2.63
2023-10-17T09:29:27.168Z,3.20
2023-10-17T09:31:53.690Z,2.47
2023-10-17T09:34:21.829Z,3.60
2023-10-17T09:36:49.248Z,2.47
2023-10-17T09:39:31.884Z,2.90
2023-10-17T09:42:03.126Z,2.78
2023-10-17T09:44:31.036Z,2.42
2023-10-17T09:47:01.342Z,2.20
2023-10-17T09:49:33.348Z,1.75
2023-10-17T09:52:03.878Z,2.25
2023-10-17T09:54:35.209Z,1.90
2023-10-17T09:57:04.135Z,2.05
2023-10-17T09:59:32.812Z,1.85
2023-10-17T10:01:59.617Z,2.08
2023-10-17T10:04:28.580Z,2.50
2023-10-17T10:07:15.671Z,2.55
2023-10-17T10:09:42.071Z,2.00
2023-10-17T10:12:08.525Z,3.72
2023-10-17T10:14:35.625Z,2.90
2023-10-17T10:17:05.345Z,2.90
2023-10-17T10:19:44.189Z,2.70
2023-10-17T10:22:15.053Z,2.33
2023-10-17T10:24:42.836Z,2.20
2023-10-17T10:27:09.264Z,2.78
2023-10-17T10:29:35.909Z,2.53
2023-10-17T10:32:07.010Z,2.72
2023-10-17T10:34:36.916Z,2.22
2023-10-17T10:37:09.718Z,2.40
2023-10-17T10:39:38.863Z,1.83
2023-10-17T10:42:08.258Z,2.35
2023-10-17T10:44:43.513Z,2.58
2023-10-17T10:47:10.319Z,2.33
2023-10-17T10:49:36.785Z,2.25
2023-10-17T10:52:04.378Z,2.40
2023-10-17T10:54:50.297Z,2.92
2023-10-17T10:57:26.749Z,2.30
2023-10-17T10:59:53.402Z,2.50
2023-10-17T11:02:21.330Z,2.90
2023-10-17T11:04:50.504Z,2.75
2023-10-17T11:07:20.280Z,2.50
2023-10-17T11:10:00.902Z,3.47
2023-10-17T11:12:27.256Z,3.67
2023-10-17T11:15:15.782Z,2.75
2023-10-17T11:17:46.241Z,2.65
2023-10-17T11:20:18.411Z,2.42
2023-10-17T11:22:45.332Z,2.78
2023-10-17T11:25:28.781Z,2.70
2023-10-17T11:27:57.381Z,2.38
2023-10-17T11:30:33.823Z,1.98
2023-10-17T11:33:01.904Z,2.25
2023-10-17T11:35:31.667Z,2.55
2023-10-17T11:38:07.526Z,2.42
2023-10-17T11:40:39.590Z,1.80
2023-10-17T11:43:16.972Z,1.52
2023-10-17T11:45:43.908Z,2.08
2023-10-17T11:48:27.797Z,1.80
2023-10-17T11:51:06.386Z,2.50
2023-10-17T11:53:33.296Z,1.83
2023-10-17T11:55:59.855Z,1.73
2023-10-17T11:58:26.391Z,1.52
2023-10-17T12:00:53.243Z,1.42
2023-10-17T12:03:22.623Z,2.13
2023-10-17T12:05:49.177Z,1.98
2023-10-17T12:08:23.137Z,2.28
2023-10-17T12:10:52.613Z,2.30
2023-10-17T12:13:19.172Z,2.05
2023-10-17T12:15:48.630Z,1.70
2023-10-17T12:18:15.130Z,1.60
2023-10-17T12:20:41.860Z,1.70
2023-10-17T12:23:13.465Z,1.83
2023-10-17T12:25:44.215Z,2.08
2023-10-17T12:28:10.604Z,2.13
2023-10-17T12:30:37.437Z,1.67
2023-10-17T12:33:05.837Z,1.75
2023-10-17T12:35:32.671Z,1.50
2023-10-17T12:38:00.325Z,1.70
2023-10-17T12:40:27.442Z,1.48
2023-10-17T12:42:56.763Z,1.00
2023-10-17T12:45:23.828Z,1.73
2023-10-17T12:47:50.388Z,1.35
2023-10-17T12:50:19.684Z,1.60
2023-10-17T12:52:46.509Z,2.00
2023-10-17T12:55:13.067Z,1.30
2023-10-17T12:57:40.005Z,1.88
2023-10-17T13:00:11.002Z,1.15
2023-10-17T13:02:40.064Z,1.48
2023-10-17T13:05:10.660Z,1.38
2023-10-17T13:07:40.646Z,1.50
2023-10-17T13:10:08.225Z,1.20
2023-10-17T13:12:34.906Z,1.48
2023-10-17T13:15:01.265Z,1.13
2023-10-17T13:17:29.687Z,1.33
2023-10-17T13:19:58.574Z,1.50
2023-10-17T13:22:24.997Z,1.27
2023-10-17T13:24:51.616Z,1.38
2023-10-17T13:27:20.774Z,1.58
2023-10-17T13:29:48.760Z,1.38
2023-10-17T13:32:15.850Z,1.27
2023-10-17T13:34:42.315Z,1.67
2023-10-17T13:37:10.472Z,1.85
2023-10-17T13:39:38.296Z,1.30
2023-10-17T13:42:05.100Z,1.20
2023-10-17T13:44:32.130Z,1.20
2023-10-17T13:46:58.880Z,1.63
2023-10-17T13:49:27.690Z,1.50
2023-10-17T13:51:55.961Z,1.55
2023-10-17T13:54:22.551Z,1.27
2023-10-17T13:56:49.014Z,1.70
2023-10-17T13:59:15.775Z,1.90
2023-10-17T14:01:48.016Z,1.50
2023-10-17T14:04:14.724Z,1.63
2023-10-17T14:06:43.331Z,1.70
2023-10-17T14:09:16.314Z,1.50
2023-10-17T14:11:43.638Z,1.95
2023-10-17T14:14:12.071Z,1.30
2023-10-17T14:16:41.604Z,1.30
2023-10-17T14:19:16.694Z,1.20
2023-10-17T14:22:02.674Z,1.33
2023-10-17T14:24:39.547Z,1.83
2023-10-17T14:27:13.142Z,1.80
2023-10-17T14:29:43.223Z,1.60
2023-10-17T14:32:09.959Z,1.70
2023-10-17T14:34:38.755Z,1.70
2023-10-17T14:37:06.786Z,2.03
2023-10-17T14:39:33.468Z,1.95
2023-10-17T14:41:59.868Z,2.08
2023-10-17T14:44:28.267Z,1.77
2023-10-17T14:46:54.673Z,1.70
2023-10-17T14:49:22.483Z,1.58
2023-10-17T14:51:48.908Z,1.83
2023-10-17T14:54:16.377Z,1.50
2023-10-17T14:56:43.485Z,1.48
2023-10-17T14:59:09.914Z,1.70
2023-10-17T15:01:37.272Z,1.33
2023-10-17T15:04:03.937Z,1.27
2023-10-17T15:06:30.755Z,1.65
2023-10-17T15:08:57.185Z,1.90
2023-10-17T15:11:24.479Z,1.42
2023-10-17T15:13:50.871Z,1.70
2023-10-17T15:16:20.238Z,1.80
2023-10-17T15:18:48.985Z,1.55
2023-10-17T15:21:20.186Z,1.85
2023-10-17T15:23:47.217Z,1.48
2023-10-17T15:26:13.653Z,1.77
2023-10-17T15:28:42.469Z,1.48
2023-10-17T15:31:09.868Z,1.73
2023-10-17T15:33:37.904Z,1.52
2023-10-17T15:36:05.801Z,1.63
2023-10-17T15:38:32.584Z,1.45
2023-10-17T15:41:00.114Z,1.40
2023-10-17T15:43:26.898Z,1.80
2023-10-17T15:45:55.414Z,2.13
2023-10-17T15:48:25.586Z,1.67
2023-10-17T15:50:56.513Z,1.42
2023-10-17T15:53:27.249Z,1.73
2023-10-17T15:55:54.400Z,1.70
2023-10-17T15:58:24.825Z,1.50
2023-10-17T16:00:52.583Z,1.73
2023-10-17T16:03:19.787Z,1.60
2023-10-17T16:05:47.216Z,1.70
2023-10-17T16:08:14.072Z,1.50
2023-10-17T16:10:41.041Z,1.80
2023-10-17T16:13:11.609Z,1.58
2023-10-17T16:15:39.150Z,1.65
2023-10-17T16:18:09.501Z,1.60
2023-10-17T16:20:38.900Z,1.67
2023-10-17T16:23:05.383Z,1.50
2023-10-17T16:25:33.859Z,1.90
2023-10-17T16:28:00.820Z,1.95
2023-10-17T16:30:29.936Z,1.88
2023-10-17T16:32:56.914Z,1.10
2023-10-17T16:35:23.988Z,1.98
2023-10-17T16:37:50.834Z,1.50
2023-10-17T16:40:17.915Z,1.90
2023-10-17T16:42:47.679Z,1.83
2023-10-17T16:45:15.212Z,1.80
2023-10-17T16:47:43.693Z,1.70
2023-10-17T16:50:13.192Z,2.10
2023-10-17T16:52:39.976Z,1.95
2023-10-17T16:55:06.623Z,1.80
2023-10-17T16:57:33.054Z,1.85
2023-10-17T17:00:09.325Z,2.05
2023-10-17T17:02:36.802Z,1.90
2023-10-17T17:05:05.000Z,2.20
2023-10-17T17:07:31.709Z,2.35
2023-10-17T17:09:58.286Z,1.88
2023-10-17T17:12:24.886Z,2.05
2023-10-17T17:14:51.330Z,1.85
2023-10-17T17:17:18.060Z,1.80
2023-10-17T17:19:44.569Z,1.95
2023-10-17T17:22:11.913Z,1.90
2023-10-17T17:24:38.675Z,2.25
2023-10-17T17:27:05.080Z,2.45
2023-10-17T17:29:31.797Z,2.30
2023-10-17T17:31:58.860Z,2.05
2023-10-17T17:34:25.535Z,2.17
2023-10-17T17:36:52.877Z,2.13
2023-10-17T17:39:22.898Z,2.53
2023-10-17T17:41:49.956Z,2.38
2023-10-17T17:44:16.333Z,2.30
2023-10-17T17:46:43.309Z,2.40
2023-10-17T17:49:11.033Z,2.40
2023-10-17T17:51:38.352Z,2.33
2023-10-17T17:54:05.574Z,2.20
2023-10-17T17:56:32.472Z,2.50
2023-10-17T17:59:02.551Z,1.70
2023-10-17T18:01:29.320Z,2.40
2023-10-17T18:04:06.008Z,1.90
2023-10-17T18:06:41.880Z,2.17
2023-10-17T18:09:08.784Z,2.10
2023-10-17T18:11:37.854Z,2.50
2023-10-17T18:14:04.246Z,2.03
2023-10-17T18:16:34.717Z,2.55
2023-10-17T18:19:10.158Z,3.55
2023-10-17T18:21:36.925Z,2.83
2023-10-17T18:24:04.567Z,4.50
2023-10-17T18:26:32.048Z,3.17
2023-10-17T18:28:58.593Z,2.80
2023-10-17T18:31:25.244Z,2.75
2023-10-17T18:33:52.068Z,2.95
2023-10-17T18:36:18.612Z,2.53
2023-10-17T18:38:47.814Z,2.70
2023-10-17T18:41:15.159Z,2.58
2023-10-17T18:43:46.324Z,2.38
2023-10-17T18:46:13.727Z,2.67
2023-10-17T18:48:40.849Z,3.20
2023-10-17T18:51:11.839Z,2.92
2023-10-17T18:53:39.095Z,3.13
2023-10-17T18:56:09.814Z,2.65
2023-10-17T18:58:37.267Z,4.10
2023-10-17T19:01:14.107Z,3.45
2023-10-17T19:03:41.754Z,3.78
2023-10-17T19:06:09.776Z,2.97
2023-10-17T19:08:36.738Z,4.10
2023-10-17T19:11:05.772Z,3.30
2023-10-17T19:13:32.796Z,3.10
2023-10-17T19:15:59.529Z,4.35
2023-10-17T19:18:26.033Z,3.80
2023-10-17T19:20:55.236Z,3.92
2023-10-17T19:23:22.414Z,3.95
2023-10-17T19:25:49.069Z,3.63
2023-10-17T19:28:15.537Z,4.03
2023-10-17T19:30:42.748Z,4.85
2023-10-17T19:33:10.926Z,4.35
2023-10-17T19:35:38.082Z,4.63
2023-10-17T19:38:04.908Z,3.80
2023-10-17T19:40:31.325Z,4.45
2023-10-17T19:43:03.747Z,4.40
2023-10-17T19:45:31.759Z,4.03
2023-10-17T19:48:01.541Z,4.78
2023-10-17T19:50:29.012Z,4.28
2023-10-17T19:52:57.312Z,4.38
2023-10-17T19:55:24.976Z,3.88
2023-10-17T19:57:53.988Z,4.57
2023-10-17T20:00:24.024Z,4.45
2023-10-17T20:02:51.637Z,5.57
2023-10-17T20:05:18.647Z,5.28
2023-10-17T20:07:48.909Z,4.38
2023-10-17T20:10:15.632Z,5.65
2023-10-17T20:12:42.523Z,4.57
2023-10-17T20:15:09.317Z,5.32
2023-10-17T20:17:36.207Z,4.75
2023-10-17T20:20:07.656Z,6.03
2023-10-17T20:22:36.444Z,4.90
2023-10-17T20:25:03.926Z,5.93
2023-10-17T20:27:30.672Z,5.90
2023-10-17T20:29:57.531Z,5.10
2023-10-17T20:32:24.070Z,6.30
2023-10-17T20:34:52.877Z,5.25
2023-10-17T20:37:19.346Z,6.03
2023-10-17T20:39:47.700Z,5.57
2023-10-17T20:42:14.285Z,6.18
2023-10-17T20:44:40.811Z,6.35
2023-10-17T20:47:07.374Z,6.60
2023-10-17T20:49:36.669Z,6.05
2023-10-17T20:52:05.676Z,6.10
2023-10-17T20:54:32.669Z,6.72
2023-10-17T20:56:59.140Z,6.40
2023-10-17T20:59:26.353Z,6.82
2023-10-17T21:01:54.487Z,6.63
2023-10-17T21:04:22.380Z,7.05
2023-10-17T21:06:51.761Z,6.93
2023-10-17T21:09:19.260Z,6.90
2023-10-17T21:11:45.828Z,8.25
2023-10-17T21:14:13.515Z,7.22
2023-10-17T21:16:40.366Z,7.13
2023-10-17T21:19:09.615Z,6.13
2023-10-17T21:21:38.566Z,6.63
2023-10-17T21:24:07.057Z,6.95
2023-10-17T21:26:33.844Z,6.80
2023-10-17T21:29:00.536Z,7.07
2023-10-17T21:31:27.174Z,7.20
2023-10-17T21:33:53.618Z,7.47
2023-10-17T21:36:20.018Z,7.53
2023-10-17T21:38:46.771Z,6.55
2023-10-17T21:41:13.695Z,7.30
2023-10-17T21:43:40.224Z,6.63
2023-10-17T21:46:09.660Z,6.70
2023-10-17T21:48:37.260Z,7.70
2023-10-17T21:51:10.716Z,8.57
2023-10-17T21:53:38.276Z,8.43
2023-10-17T21:56:05.224Z,8.75
2023-10-17T21:58:36.509Z,8.30
2023-10-17T22:01:06.155Z,6.95
2023-10-17T22:03:33.396Z,7.65
2023-10-17T22:06:10.413Z,7.97
2023-10-17T22:08:39.543Z,8.00
2023-10-17T22:11:06.467Z,8.10
2023-10-17T22:13:32.963Z,8.73
2023-10-17T22:16:00.275Z,6.93
2023-10-17T22:18:27.213Z,8.10
2023-10-17T22:20:53.661Z,8.68
2023-10-17T22:23:22.695Z,9.10
2023-10-17T22:25:49.549Z,8.80
2023-10-17T22:28:17.098Z,9.35
2023-10-17T22:30:43.591Z,8.50
2023-10-17T22:33:10.934Z,8.60
2023-10-17T22:35:37.397Z,9.50
2023-10-17T22:38:03.970Z,8.02
2023-10-17T22:40:30.340Z,9.38
2023-10-17T22:42:56.961Z,8.95
2023-10-17T22:45:23.428Z,8.68
2023-10-17T22:47:51.246Z,9.07
2023-10-17T22:50:18.086Z,9.52
2023-10-17T22:52:44.872Z,9.68
2023-10-17T22:55:11.585Z,9.25
2023-10-17T22:57:38.318Z,9.68
2023-10-17T23:00:09.130Z,9.95
2023-10-17T23:02:35.776Z,10.82
2023-10-17T23:05:02.605Z,9.35
2023-10-17T23:07:29.373Z,9.07
2023-10-17T23:09:56.210Z,9.77
2023-10-17T23:12:22.767Z,9.48
2023-10-17T23:14:49.443Z,10.40
2023-10-17T23:17:15.912Z,9.95
2023-10-17T23:19:42.449Z,9.55
2023-10-17T23:22:09.896Z,9.45
2023-10-17T23:24:36.662Z,9.27
2023-10-17T23:27:03.088Z,10.20
2023-10-17T23:29:29.785Z,9.35
2023-10-17T23:31:56.427Z,9.25
2023-10-17T23:34:22.895Z,10.25
2023-10-17T23:36:49.351Z,10.30
2023-10-17T23:39:17.376Z,10.48
2023-10-17T23:41:46.567Z,10.45
2023-10-17T23:44:13.415Z,9.55
2023-10-17T23:46:40.687Z,10.65
2023-10-17T23:49:11.120Z,11.05
2023-10-17T23:51:40.755Z,9.82
2023-10-17T23:54:07.537Z,10.57
2023-10-17T23:56:34.336Z,9.48
2023-10-17T23:59:00.799Z,10.10
